Time;durP1;ratioP1;P1;durP2;ratioP2;P2;SDS_P1;SDS_P2;PMS_P1;PMS_P2;Temp;Humidity;BMP_temperature;BMP_pressure;BME280_temperature;BME280_humidity;BME280_pressure;Samples;Min_cycle;Max_cycle;Signal;HPM_P1;HPM_P2
2022/05/30 00:00:19;;;;;;;8.67;5.40;;;10.90;99.90;;;;;;5031252;28;20035;-54
2022/05/30 00:02:44;;;;;;;7.90;5.40;;;10.90;99.90;;;;;;5048943;28;20025;-54
2022/05/30 00:05:11;;;;;;;9.10;4.72;;;10.90;99.90;;;;;;5049228;28;20029;-55
2022/05/30 00:07:38;;;;;;;7.82;4.65;;;10.90;99.90;;;;;;5049157;28;20025;-54
2022/05/30 00:10:07;;;;;;;13.10;5.00;;;10.90;99.90;;;;;;5048867;28;20036;-54
2022/05/30 00:12:33;;;;;;;11.20;6.85;;;10.90;99.90;;;;;;5049276;28;20029;-54
2022/05/30 00:14:59;;;;;;;9.10;5.30;;;10.90;99.90;;;;;;5048946;28;20049;-54
2022/05/30 00:17:25;;;;;;;11.40;4.50;;;10.90;99.90;;;;;;5049071;28;20071;-55
2022/05/30 00:19:51;;;;;;;11.07;5.22;;;10.90;99.90;;;;;;5048842;28;20076;-54
2022/05/30 00:22:18;;;;;;;8.57;5.70;;;10.90;99.90;;;;;;5052676;28;20067;-54
2022/05/30 00:24:44;;;;;;;9.23;4.73;;;10.90;99.90;;;;;;5052615;28;21020;-54
2022/05/30 00:27:11;;;;;;;8.98;5.30;;;10.90;99.90;;;;;;5052686;28;20036;-54
2022/05/30 00:29:39;;;;;;;14.13;5.50;;;11.00;99.90;;;;;;5052232;28;20033;-55
2022/05/30 00:32:06;;;;;;;9.95;5.60;;;10.90;99.90;;;;;;5052455;28;20481;-54
2022/05/30 00:34:32;;;;;;;13.68;5.25;;;10.90;99.90;;;;;;5052172;28;20036;-54
2022/05/30 00:36:58;;;;;;;8.52;4.60;;;10.90;99.90;;;;;;5052365;28;20041;-54
2022/05/30 00:39:24;;;;;;;8.63;4.32;;;10.90;99.90;;;;;;5052044;28;20108;-54
2022/05/30 00:41:49;;;;;;;9.55;5.82;;;10.90;99.90;;;;;;5052157;28;20025;-54
2022/05/30 00:44:15;;;;;;;10.45;5.22;;;10.90;99.90;;;;;;5052339;28;20081;-55
2022/05/30 00:46:41;;;;;;;10.75;5.68;;;10.90;99.90;;;;;;5052218;28;20037;-54
2022/05/30 00:49:11;;;;;;;10.43;5.75;;;10.80;99.90;;;;;;5051871;28;20025;-55
2022/05/30 00:51:44;;;;;;;9.45;5.03;;;10.80;99.90;;;;;;5052246;28;20020;-54
2022/05/30 00:54:12;;;;;;;11.90;5.40;;;10.90;99.90;;;;;;5051910;28;20490;-54
2022/05/30 00:56:43;;;;;;;11.52;6.03;;;10.90;99.90;;;;;;5052291;28;20114;-54
2022/05/30 00:59:09;;;;;;;10.35;5.57;;;10.90;99.90;;;;;;5052184;28;20025;-54
2022/05/30 01:01:36;;;;;;;12.32;5.60;;;10.90;99.90;;;;;;5052157;28;20415;-54
2022/05/30 01:06:52;;;;;;;9.38;4.70;;;10.80;99.90;;;;;;5031071;28;20043;-54
2022/05/30 01:09:32;;;;;;;8.95;4.63;;;10.80;99.90;;;;;;5031693;28;20033;-54
2022/05/30 01:12:03;;;;;;;12.48;5.10;;;10.80;99.90;;;;;;5031916;28;20045;-53
2022/05/30 01:14:32;;;;;;;7.10;3.95;;;10.80;99.90;;;;;;5031481;28;20041;-54
2022/05/30 01:16:59;;;;;;;9.20;4.88;;;10.80;99.90;;;;;;5031697;28;20029;-54
2022/05/30 01:19:36;;;;;;;11.80;5.45;;;10.80;99.90;;;;;;5031412;28;20061;-53
2022/05/30 01:22:27;;;;;;;9.55;5.13;;;10.80;99.90;;;;;;5031732;28;20030;-54
2022/05/30 01:25:31;;;;;;;8.10;4.68;;;10.80;99.90;;;;;;5031522;28;20147;-54
2022/05/30 01:28:11;;;;;;;9.55;4.78;;;10.80;99.90;;;;;;5031391;28;20055;-54
2022/05/30 01:30:39;;;;;;;7.53;4.40;;;10.70;99.90;;;;;;5037155;28;20050;-54
2022/05/30 01:33:05;;;;;;;12.13;4.90;;;10.60;99.90;;;;;;5050579;28;20748;-53
2022/05/30 01:35:31;;;;;;;12.35;4.43;;;10.60;99.90;;;;;;5051445;28;20116;-54
2022/05/30 01:37:58;;;;;;;6.78;3.58;;;10.60;99.90;;;;;;5051143;28;20113;-54
2022/05/30 01:40:26;;;;;;;9.55;3.72;;;10.50;99.90;;;;;;5017172;28;20829;-53
2022/05/30 01:42:53;;;;;;;9.07;4.00;;;10.50;99.90;;;;;;5051266;28;20033;-53
2022/05/30 01:45:19;;;;;;;6.32;3.97;;;10.40;99.90;;;;;;5033307;28;20075;-53
2022/05/30 01:47:45;;;;;;;7.95;4.07;;;10.40;99.90;;;;;;5032856;28;20029;-54
2022/05/30 01:50:11;;;;;;;8.23;3.78;;;10.40;99.90;;;;;;5051002;28;20542;-53
2022/05/30 01:52:37;;;;;;;8.38;4.45;;;10.30;99.90;;;;;;5050807;28;20031;-53
2022/05/30 01:55:04;;;;;;;8.80;3.88;;;10.40;99.90;;;;;;5050914;28;20044;-54
2022/05/30 01:57:30;;;;;;;6.77;3.80;;;10.40;99.90;;;;;;5051146;28;20111;-55
2022/05/30 01:59:55;;;;;;;11.70;4.35;;;10.30;99.90;;;;;;5050494;28;20053;-54
2022/05/30 02:02:21;;;;;;;8.65;4.28;;;10.30;99.90;;;;;;5051128;28;20504;-54
2022/05/30 02:04:48;;;;;;;8.80;3.25;;;10.30;99.90;;;;;;5050803;28;20485;-53
2022/05/30 02:07:14;;;;;;;9.48;3.95;;;10.30;99.90;;;;;;5050888;28;20065;-53
2022/05/30 02:09:39;;;;;;;7.68;3.45;;;10.30;99.90;;;;;;5032269;28;20408;-53
2022/05/30 02:12:05;;;;;;;10.48;4.50;;;10.30;99.90;;;;;;5050873;28;20021;-54
2022/05/30 02:14:31;;;;;;;7.93;4.13;;;10.30;99.90;;;;;;5050560;28;20065;-53
2022/05/30 02:17:00;;;;;;;10.07;4.85;;;10.30;99.90;;;;;;5035546;28;20075;-54
2022/05/30 02:19:26;;;;;;;9.07;4.20;;;10.30;99.90;;;;;;5030165;28;20532;-54
2022/05/30 02:21:52;;;;;;;7.65;4.13;;;10.30;99.90;;;;;;5031036;28;20021;-54
2022/05/30 02:24:18;;;;;;;7.78;4.10;;;10.40;99.90;;;;;;5030663;28;20018;-53
2022/05/30 02:26:44;;;;;;;9.35;5.25;;;10.30;99.90;;;;;;5030733;28;20037;-53
2022/05/30 02:29:11;;;;;;;7.80;4.03;;;10.30;99.90;;;;;;5030097;28;20029;-54
2022/05/30 02:31:37;;;;;;;5.20;3.55;;;10.30;99.90;;;;;;5041743;28;20204;-54
2022/05/30 02:36:48;;;;;;;6.50;3.53;;;10.20;99.90;;;;;;5050735;28;20094;-54
2022/05/30 02:39:25;;;;;;;8.85;3.20;;;10.20;99.90;;;;;;5049989;28;20082;-53
2022/05/30 02:41:51;;;;;;;8.25;3.67;;;10.20;99.90;;;;;;5050601;28;20029;-53
2022/05/30 02:44:19;;;;;;;10.68;3.78;;;10.20;99.90;;;;;;5050238;28;20068;-54
2022/05/30 02:46:47;;;;;;;11.23;3.58;;;10.20;99.90;;;;;;5049896;28;20539;-53
2022/05/30 02:49:13;;;;;;;7.95;2.85;;;10.20;99.90;;;;;;5049960;28;20068;-54
2022/05/30 02:51:38;;;;;;;6.00;3.13;;;10.10;99.90;;;;;;5049977;28;20056;-54
2022/05/30 02:54:04;;;;;;;8.32;3.50;;;10.10;99.90;;;;;;5049981;28;20033;-54
2022/05/30 02:56:30;;;;;;;11.32;5.15;;;10.10;99.90;;;;;;5050179;28;20033;-54
2022/05/30 02:59:00;;;;;;;9.50;3.50;;;10.10;99.90;;;;;;5031667;28;20017;-54
2022/05/30 03:01:27;;;;;;;7.22;2.90;;;10.10;99.90;;;;;;5050173;28;20033;-54
2022/05/30 03:03:53;;;;;;;4.90;3.13;;;10.10;99.90;;;;;;5049990;28;20029;-54
2022/05/30 03:06:19;;;;;;;6.22;3.25;;;10.10;99.90;;;;;;5049746;28;20047;-54
2022/05/30 03:08:45;;;;;;;5.88;3.30;;;10.00;99.90;;;;;;5049653;28;20017;-53
2022/05/30 03:11:12;;;;;;;8.85;3.58;;;10.10;99.90;;;;;;5049831;28;20380;-54
2022/05/30 03:13:38;;;;;;;5.03;3.20;;;10.10;99.90;;;;;;5049892;28;20021;-54
2022/05/30 03:16:04;;;;;;;7.22;3.47;;;10.00;99.90;;;;;;5049601;28;20047;-53
2022/05/30 03:18:30;;;;;;;6.67;3.80;;;10.00;99.90;;;;;;5049777;28;20028;-54
2022/05/30 03:20:57;;;;;;;12.18;3.38;;;10.00;99.90;;;;;;5049462;28;20419;-54
2022/05/30 03:23:23;;;;;;;8.20;3.47;;;10.00;99.90;;;;;;5049533;28;20029;-54
2022/05/30 03:25:49;;;;;;;5.93;3.13;;;10.00;99.90;;;;;;5049847;28;20037;-54
2022/05/30 03:28:15;;;;;;;6.05;4.05;;;10.00;99.90;;;;;;5049664;28;20476;-53
2022/05/30 03:30:40;;;;;;;7.20;3.28;;;10.00;99.90;;;;;;5049513;28;20021;-55
2022/05/30 03:33:08;;;;;;;6.53;3.05;;;9.90;99.90;;;;;;5049541;28;20040;-55
2022/05/30 03:35:35;;;;;;;7.57;3.50;;;9.90;99.90;;;;;;5049469;28;20044;-54
2022/05/30 03:38:01;;;;;;;7.70;4.35;;;9.90;99.90;;;;;;5048909;28;20146;-55
2022/05/30 03:40:27;;;;;;;4.72;3.00;;;9.90;99.90;;;;;;5049575;28;20025;-54
2022/05/30 03:42:53;;;;;;;5.60;3.20;;;9.90;99.90;;;;;;5049310;28;20021;-55
2022/05/30 03:45:19;;;;;;;6.97;3.13;;;9.90;99.90;;;;;;5049285;28;20391;-54
2022/05/30 03:47:46;;;;;;;7.15;3.30;;;9.90;99.90;;;;;;5049137;28;20028;-54
2022/05/30 03:50:19;;;;;;;8.38;3.35;;;9.90;99.90;;;;;;5049329;28;20102;-55
2022/05/30 03:52:45;;;;;;;7.40;2.85;;;9.90;99.90;;;;;;5049327;28;20021;-54
2022/05/30 03:55:15;;;;;;;6.90;3.15;;;9.90;99.90;;;;;;5049870;28;20439;-54
2022/05/30 03:57:41;;;;;;;4.38;3.05;;;9.80;99.90;;;;;;5053176;28;20376;-54
2022/05/30 04:00:14;;;;;;;4.82;2.90;;;9.90;99.90;;;;;;5053024;28;20025;-54
2022/05/30 04:02:39;;;;;;;6.88;2.63;;;9.90;99.90;;;;;;5052999;28;20049;-55
2022/05/30 04:05:06;;;;;;;10.48;4.57;;;9.90;99.90;;;;;;5053004;28;20049;-54
2022/05/30 04:07:31;;;;;;;5.65;2.80;;;9.90;99.90;;;;;;5053126;28;20021;-55
2022/05/30 04:09:57;;;;;;;6.15;3.53;;;10.00;99.90;;;;;;5034923;28;20380;-54
2022/05/30 04:12:23;;;;;;;7.50;3.00;;;9.90;99.90;;;;;;5052830;28;20068;-54
2022/05/30 04:14:56;;;;;;;5.95;2.88;;;10.00;99.90;;;;;;5052500;28;20125;-55
2022/05/30 04:17:23;;;;;;;6.88;3.53;;;9.90;99.90;;;;;;5052946;28;20017;-54
2022/05/30 04:19:49;;;;;;;4.50;2.77;;;10.00;99.90;;;;;;5052350;28;20060;-55
2022/05/30 04:22:15;;;;;;;7.57;2.85;;;9.90;99.90;;;;;;5052639;28;20029;-54
2022/05/30 04:24:41;;;;;;;5.45;3.10;;;10.00;99.90;;;;;;5052556;28;20074;-54
2022/05/30 04:27:07;;;;;;;9.15;3.28;;;10.10;99.90;;;;;;5052702;28;20074;-55
2022/05/30 04:29:32;;;;;;;4.85;3.00;;;10.10;99.90;;;;;;5052497;28;20029;-55
2022/05/30 04:32:00;;;;;;;4.50;3.00;;;10.10;99.90;;;;;;5052302;28;20029;-55
2022/05/30 04:34:26;;;;;;;5.10;3.35;;;10.00;99.90;;;;;;5034188;28;20400;-56
2022/05/30 04:36:53;;;;;;;6.32;3.30;;;10.10;99.90;;;;;;5052380;28;20099;-55
2022/05/30 04:39:19;;;;;;;5.97;3.67;;;10.10;99.90;;;;;;5052545;28;20033;-55
2022/05/30 04:41:44;;;;;;;7.25;3.75;;;10.10;99.90;;;;;;5052253;28;20031;-56
2022/05/30 04:44:10;;;;;;;3.72;2.90;;;10.10;99.90;;;;;;5052125;28;20021;-55
2022/05/30 04:46:36;;;;;;;5.05;3.22;;;10.00;99.90;;;;;;5052107;28;20032;-56
2022/05/30 04:49:01;;;;;;;6.20;3.17;;;10.10;99.90;;;;;;5051915;28;20025;-55
2022/05/30 04:51:28;;;;;;;7.05;3.50;;;10.10;99.90;;;;;;5052129;28;20520;-55
2022/05/30 04:53:53;;;;;;;5.28;3.42;;;10.10;99.90;;;;;;5033822;28;20373;-56
2022/05/30 04:56:19;;;;;;;8.70;3.80;;;10.20;99.90;;;;;;5052003;28;20467;-55
2022/05/30 04:58:46;;;;;;;7.32;3.80;;;10.20;99.90;;;;;;5051881;28;20025;-55
2022/05/30 05:01:12;;;;;;;6.45;3.60;;;10.20;99.90;;;;;;5051843;28;20029;-55
2022/05/30 05:03:40;;;;;;;4.53;3.58;;;10.30;99.90;;;;;;5032944;28;20495;-55
2022/05/30 05:06:12;;;;;;;9.18;4.18;;;10.30;99.90;;;;;;5021474;28;20018;-55
2022/05/30 05:09:05;;;;;;;7.88;3.58;;;10.50;99.90;;;;;;5019652;28;20029;-54
2022/05/30 05:11:33;;;;;;;6.95;3.67;;;10.50;99.90;;;;;;5004640;28;20014;-55
2022/05/30 05:13:59;;;;;;;8.35;3.67;;;10.50;99.90;;;;;;5021105;28;20045;-54
2022/05/30 05:16:28;;;;;;;9.65;3.70;;;10.60;99.90;;;;;;5020047;28;20034;-54
2022/05/30 05:18:55;;;;;;;5.45;3.58;;;10.60;99.90;;;;;;5019973;28;20168;-54
2022/05/30 05:21:22;;;;;;;6.45;3.25;;;10.70;99.90;;;;;;5019960;28;20105;-54
2022/05/30 05:23:48;;;;;;;8.23;3.85;;;10.80;99.90;;;;;;5003429;28;20116;-54
2022/05/30 05:26:16;;;;;;;6.85;3.53;;;10.80;99.90;;;;;;5021902;28;20060;-54
2022/05/30 05:28:41;;;;;;;7.65;3.67;;;10.80;99.90;;;;;;5014925;28;20033;-54
2022/05/30 05:31:08;;;;;;;6.78;3.58;;;10.70;99.90;;;;;;5021502;28;20029;-53
2022/05/30 05:33:34;;;;;;;7.68;3.40;;;10.80;99.90;;;;;;5019688;28;20036;-52
2022/05/30 05:36:01;;;;;;;6.57;3.85;;;10.90;99.90;;;;;;5020042;28;20038;-53
2022/05/30 05:38:26;;;;;;;7.57;3.78;;;10.80;99.90;;;;;;5020470;28;20485;-54
2022/05/30 05:40:52;;;;;;;5.97;3.65;;;10.90;99.90;;;;;;5020442;28;20036;-54
2022/05/30 05:43:18;;;;;;;6.35;3.13;;;11.00;99.90;;;;;;5020750;28;20458;-54
2022/05/30 05:45:46;;;;;;;6.93;3.60;;;10.90;99.90;;;;;;5019213;28;20053;-54
2022/05/30 05:48:13;;;;;;;5.35;3.33;;;10.90;99.90;;;;;;5020227;28;20381;-54
2022/05/30 05:50:41;;;;;;;7.03;3.58;;;10.80;99.90;;;;;;5020816;28;20033;-54
2022/05/30 05:53:08;;;;;;;17.75;4.35;;;10.90;99.90;;;;;;5021261;28;20022;-54
2022/05/30 05:55:34;;;;;;;9.60;3.38;;;10.90;99.90;;;;;;5020384;28;20033;-54
2022/05/30 05:58:00;;;;;;;6.67;3.23;;;10.90;99.90;;;;;;5020838;28;20413;-54
2022/05/30 06:00:27;;;;;;;7.05;3.45;;;11.00;99.90;;;;;;5018892;28;20021;-54
2022/05/30 06:02:52;;;;;;;4.57;3.40;;;11.00;99.90;;;;;;5019647;28;20032;-54
2022/05/30 06:05:18;;;;;;;7.10;3.47;;;11.10;99.90;;;;;;5020236;28;20026;-54
2022/05/30 06:07:44;;;;;;;9.40;3.70;;;11.20;99.90;;;;;;5020347;28;20554;-55
2022/05/30 06:10:13;;;;;;;6.47;3.58;;;11.30;99.90;;;;;;5019137;28;20030;-54
2022/05/30 06:12:44;;;;;;;6.13;3.60;;;11.40;99.90;;;;;;5020729;28;20734;-55
2022/05/30 06:15:13;;;;;;;6.90;3.17;;;11.40;99.90;;;;;;5020419;28;20049;-54
2022/05/30 06:17:42;;;;;;;5.45;3.10;;;11.50;99.90;;;;;;5018453;28;20032;-54
2022/05/30 06:20:11;;;;;;;6.32;2.67;;;11.50;99.90;;;;;;5018477;28;20771;-55
2022/05/30 06:22:37;;;;;;;6.35;3.20;;;11.50;99.90;;;;;;4985329;28;20140;-55
2022/05/30 06:25:12;;;;;;;6.80;3.17;;;11.50;99.90;;;;;;5020491;28;20424;-55
2022/05/30 06:27:38;;;;;;;5.40;2.95;;;11.60;99.90;;;;;;5018351;28;20080;-54
2022/05/30 06:30:05;;;;;;;6.03;2.92;;;11.70;99.90;;;;;;5001984;28;20042;-54
2022/05/30 06:32:31;;;;;;;7.97;3.40;;;11.80;99.90;;;;;;5000534;28;20034;-55
2022/05/30 06:34:57;;;;;;;4.30;2.80;;;11.90;99.90;;;;;;5019515;28;20365;-55
2022/05/30 06:37:23;;;;;;;5.47;2.30;;;12.10;99.90;;;;;;5019307;28;20477;-55
2022/05/30 06:39:52;;;;;;;6.57;2.38;;;12.10;99.90;;;;;;5018267;28;20060;-54
2022/05/30 06:42:18;;;;;;;4.03;1.70;;;12.20;99.90;;;;;;5019872;28;20034;-54
2022/05/30 06:44:43;;;;;;;3.85;1.83;;;12.30;99.90;;;;;;5019063;28;20033;-54
2022/05/30 06:47:09;;;;;;;7.25;1.95;;;12.20;99.90;;;;;;5018297;28;20037;-55
2022/05/30 06:49:35;;;;;;;6.80;1.95;;;12.20;99.90;;;;;;5019527;28;20036;-55
2022/05/30 06:52:01;;;;;;;4.43;2.25;;;12.20;99.90;;;;;;5034588;28;20042;-55
2022/05/30 06:54:27;;;;;;;3.38;1.83;;;12.30;99.90;;;;;;5050006;28;20086;-55
2022/05/30 06:59:37;;;;;;;4.10;2.50;;;12.30;99.90;;;;;;5049655;28;20461;-54
2022/05/30 07:02:05;;;;;;;6.10;2.53;;;12.30;99.90;;;;;;5049971;28;20103;-54
2022/05/30 07:04:31;;;;;;;;;;;12.40;99.90;;;;;;5050197;28;20100;-54
2022/05/30 07:06:57;;;;;;;2.83;1.88;;;12.40;99.90;;;;;;5049618;28;20379;-54
2022/05/30 07:09:23;;;;;;;10.57;2.75;;;12.60;99.90;;;;;;5049403;28;20064;-54
2022/05/30 07:11:49;;;;;;;3.20;1.23;;;12.70;99.90;;;;;;5049810;28;20377;-54
2022/05/30 07:14:16;;;;;;;4.07;1.60;;;12.70;99.90;;;;;;5031365;28;20591;-55
2022/05/30 07:16:43;;;;;;;5.85;1.95;;;12.60;99.90;;;;;;5049377;28;20033;-54
2022/05/30 07:19:09;;;;;;;5.20;2.35;;;12.70;99.90;;;;;;5049586;28;20068;-54
2022/05/30 07:21:36;;;;;;;5.10;3.42;;;12.70;99.90;;;;;;5049718;28;20041;-55
2022/05/30 07:24:03;;;;;;;5.53;3.35;;;12.80;99.90;;;;;;5049359;28;20087;-54
2022/05/30 07:26:29;;;;;;;6.38;3.50;;;12.70;99.90;;;;;;5049360;28;20033;-54
2022/05/30 07:28:55;;;;;;;6.65;4.10;;;12.60;99.90;;;;;;5031202;28;20473;-55
2022/05/30 07:31:25;;;;;;;6.43;3.67;;;12.30;99.90;;;;;;5052460;28;20439;-55
2022/05/30 07:33:51;;;;;;;7.70;2.90;;;12.20;99.90;;;;;;5053695;28;20029;-54
2022/05/30 07:36:21;;;;;;;3.90;1.92;;;12.30;99.90;;;;;;5036363;28;20508;-53
2022/05/30 07:38:47;;;;;;;5.05;2.22;;;12.00;99.90;;;;;;5013533;28;20032;-54
2022/05/30 07:41:14;;;;;;;6.90;2.42;;;11.90;99.90;;;;;;5013905;28;20128;-54
2022/05/30 07:43:40;;;;;;;6.82;2.60;;;11.90;99.90;;;;;;5013640;28;20038;-53
2022/05/30 07:46:09;;;;;;;4.85;1.90;;;12.20;99.90;;;;;;5013685;28;20022;-54
2022/05/30 07:48:36;;;;;;;5.00;1.90;;;12.30;99.90;;;;;;5013520;28;20113;-54
2022/05/30 07:51:02;;;;;;;4.85;2.63;;;12.50;99.90;;;;;;5022227;28;20029;-53
2022/05/30 07:53:29;;;;;;;4.57;2.45;;;12.60;99.90;;;;;;5021438;28;20025;-53
2022/05/30 07:55:55;;;;;;;4.20;2.55;;;12.80;99.90;;;;;;5022857;28;20092;-53
2022/05/30 07:58:20;;;;;;;5.63;2.70;;;12.90;99.90;;;;;;5022123;28;20030;-53
2022/05/30 08:00:49;;;;;;;8.45;4.13;;;12.90;99.90;;;;;;5022322;28;20449;-53
2022/05/30 08:03:16;;;;;;;4.82;2.40;;;12.90;99.90;;;;;;5005721;28;20044;-53
2022/05/30 08:05:43;;;;;;;6.45;2.53;;;12.60;99.90;;;;;;5022773;28;20076;-53
2022/05/30 08:08:10;;;;;;;13.70;5.15;;;12.60;99.90;;;;;;5027997;28;20220;-53
2022/05/30 08:10:36;;;;;;;11.32;2.88;;;12.50;99.90;;;;;;5032840;28;20032;-52
2022/05/30 08:13:03;;;;;;;7.80;2.95;;;12.40;99.90;;;;;;5023093;28;20109;-53
2022/05/30 08:15:30;;;;;;;4.80;1.90;;;12.30;99.90;;;;;;5021628;28;20049;-53
2022/05/30 08:17:58;;;;;;;8.43;2.40;;;12.40;99.90;;;;;;5020811;28;20099;-55
2022/05/30 08:20:26;;;;;;;4.90;2.60;;;12.30;99.90;;;;;;5022614;28;20480;-54
2022/05/30 08:22:52;;;;;;;3.28;1.88;;;12.30;99.90;;;;;;5021495;28;20469;-53
2022/05/30 08:25:19;;;;;;;3.92;1.80;;;12.30;99.90;;;;;;5032343;28;20078;-54
2022/05/30 08:27:46;;;;;;;7.03;2.38;;;12.20;99.90;;;;;;5029580;28;20113;-53
2022/05/30 08:30:13;;;;;;;;;;;12.10;99.90;;;;;;5022765;28;20087;-54
2022/05/30 08:32:42;;;;;;;4.97;1.90;;;12.20;99.90;;;;;;5021370;28;19909;-53
2022/05/30 08:35:09;;;;;;;6.15;1.90;;;12.20;99.90;;;;;;5032180;28;20113;-54
2022/05/30 08:37:37;;;;;;;3.28;1.90;;;12.30;99.90;;;;;;5022320;28;20042;-54
2022/05/30 08:43:00;;;;;;;5.18;2.22;;;12.20;99.90;;;;;;5011375;28;20114;-54
2022/05/30 08:45:27;;;;;;;7.28;3.88;;;12.20;99.90;;;;;;5012735;28;20030;-54
2022/05/30 08:47:55;;;;;;;2.70;1.80;;;12.40;99.90;;;;;;5012427;28;20080;-54
2022/05/30 08:50:30;;;;;;;5.40;2.33;;;12.50;99.90;;;;;;5021007;28;20030;-55
2022/05/30 08:53:29;;;;;;;4.60;2.38;;;12.50;99.90;;;;;;5023395;28;20026;-54
2022/05/30 08:56:01;;;;;;;6.72;3.28;;;12.50;99.90;;;;;;5012551;28;20095;-53
2022/05/30 08:58:44;;;;;;;5.05;3.03;;;12.50;99.90;;;;;;5018078;28;20057;-53
2022/05/30 09:01:17;;;;;;;7.13;4.45;;;12.50;99.90;;;;;;5020737;28;20751;-53
2022/05/30 09:04:16;;;;;;;12.48;7.00;;;12.60;99.90;;;;;;5021533;28;20021;-54
2022/05/30 09:07:09;;;;;;;12.27;7.65;;;12.50;99.90;;;;;;5020343;28;20041;-53
2022/05/30 09:09:50;;;;;;;12.15;6.90;;;12.80;99.90;;;;;;5021359;28;20029;-54
2022/05/30 09:12:18;;;;;;;14.73;11.15;;;13.10;99.90;;;;;;5021921;28;20018;-55
2022/05/30 09:14:53;;;;;;;16.73;11.80;;;12.90;99.90;;;;;;5020245;28;20378;-53
2022/05/30 09:17:27;;;;;;;13.38;10.20;;;12.80;99.90;;;;;;5019577;28;20032;-53
2022/05/30 09:19:55;;;;;;;14.80;10.15;;;13.30;99.90;;;;;;5018894;28;20529;-54
2022/05/30 09:22:24;;;;;;;14.50;9.70;;;13.50;99.90;;;;;;5019505;28;20022;-53
2022/05/30 09:27:34;;;;;;;12.68;9.65;;;14.10;99.90;;;;;;5019852;28;20029;-54
2022/05/30 09:30:01;;;;;;;11.05;7.32;;;14.30;99.90;;;;;;5021315;28;20040;-54
2022/05/30 09:32:54;;;;;;;16.48;7.78;;;13.80;99.90;;;;;;5019949;28;20564;-54
2022/05/30 09:35:30;;;;;;;12.00;6.45;;;13.80;99.90;;;;;;5021533;28;20080;-53
2022/05/30 09:38:19;;;;;;;9.55;6.22;;;13.90;99.90;;;;;;5021313;28;20021;-55
2022/05/30 09:40:50;;;;;;;10.05;5.82;;;13.60;99.90;;;;;;5021393;28;20728;-55
2022/05/30 09:43:30;;;;;;;9.55;6.30;;;13.60;99.90;;;;;;5021236;28;20481;-55
2022/05/30 09:46:13;;;;;;;9.35;6.47;;;13.70;99.90;;;;;;5024521;28;20699;-55
2022/05/30 09:48:39;;;;;;;10.82;6.03;;;13.80;99.90;;;;;;5020088;28;20034;-54
2022/05/30 09:51:05;;;;;;;7.07;5.18;;;13.70;99.90;;;;;;5018550;28;20405;-54
2022/05/30 09:53:44;;;;;;;7.15;5.30;;;13.50;99.90;;;;;;5028045;28;20637;-54
2022/05/30 09:56:14;;;;;;;8.23;5.53;;;13.60;99.90;;;;;;5022345;28;20037;-54
2022/05/30 09:58:47;;;;;;;10.90;6.18;;;13.40;99.90;;;;;;5020764;28;20052;-54
2022/05/30 10:01:23;;;;;;;8.07;5.50;;;13.50;99.90;;;;;;5020055;28;20044;-55
2022/05/30 10:03:52;;;;;;;8.05;5.03;;;13.60;99.90;;;;;;5021539;28;20034;-54
2022/05/30 10:06:26;;;;;;;7.93;4.63;;;13.60;99.90;;;;;;5018928;28;20033;-53
2022/05/30 10:09:16;;;;;;;7.22;4.95;;;13.20;99.90;;;;;;5019169;28;20033;-55
2022/05/30 10:11:42;;;;;;;6.85;4.82;;;13.50;99.90;;;;;;5018497;28;20108;-55
2022/05/30 10:14:23;;;;;;;8.57;6.40;;;13.40;99.90;;;;;;5019851;28;20025;-55
2022/05/30 10:16:50;;;;;;;19.35;9.15;;;13.50;99.90;;;;;;5019654;28;20026;-53
2022/05/30 10:19:32;;;;;;;15.18;10.23;;;13.60;99.90;;;;;;5018005;28;20783;-54
2022/05/30 10:28:32;;;;;;;13.38;10.25;;;13.90;99.90;;;;;;5020166;28;20068;-54
2022/05/30 10:31:14;;;;;;;14.68;9.77;;;14.10;99.90;;;;;;5019215;28;20571;-54
2022/05/30 10:33:42;;;;;;;12.40;8.18;;;14.20;99.90;;;;;;5019737;28;20030;-54
2022/05/30 10:36:11;;;;;;;11.32;7.82;;;14.30;99.90;;;;;;5018386;28;20034;-53
2022/05/30 10:38:54;;;;;;;14.60;7.65;;;14.40;99.90;;;;;;5018859;28;20021;-54
2022/05/30 10:41:26;;;;;;;11.90;8.65;;;14.30;99.90;;;;;;5019430;28;20151;-53
2022/05/30 10:44:20;;;;;;;12.07;8.82;;;14.30;99.90;;;;;;5020716;28;20029;-53
2022/05/30 10:46:57;;;;;;;14.15;9.15;;;14.30;99.90;;;;;;5020382;28;20049;-54
2022/05/30 10:49:27;;;;;;;13.20;8.63;;;14.30;99.90;;;;;;5017428;28;20442;-54
2022/05/30 10:52:02;;;;;;;12.27;8.70;;;14.30;99.90;;;;;;5019129;28;20389;-54
2022/05/30 10:54:43;;;;;;;15.48;9.23;;;14.50;99.90;;;;;;5019195;28;20116;-54
2022/05/30 10:57:37;;;;;;;13.52;8.40;;;14.90;99.90;;;;;;5018492;28;20298;-54
2022/05/30 11:00:21;;;;;;;14.45;7.38;;;15.00;99.90;;;;;;5020125;28;20057;-53
2022/05/30 11:03:16;;;;;;;7.60;5.80;;;15.00;99.90;;;;;;5019996;28;20026;-54
2022/05/30 11:06:01;;;;;;;9.45;5.82;;;14.90;99.90;;;;;;5019394;28;20017;-53
2022/05/30 11:08:34;;;;;;;8.63;5.32;;;15.20;99.90;;;;;;5018043;28;20037;-53
2022/05/30 11:11:47;;;;;;;6.50;4.50;;;15.00;99.90;;;;;;5016883;28;20294;-53
2022/05/30 11:14:46;;;;;;;10.20;4.10;;;14.80;99.90;;;;;;5020120;28;20052;-53
2022/05/30 11:17:30;;;;;;;6.78;3.72;;;15.20;99.90;;;;;;5019933;28;20044;-53
2022/05/30 11:20:03;;;;;;;7.25;4.05;;;15.40;99.90;;;;;;5019259;28;20054;-52
2022/05/30 11:22:49;;;;;;;5.90;3.33;;;15.20;99.90;;;;;;5018700;28;20030;-54
2022/05/30 11:25:19;;;;;;;9.27;4.32;;;15.10;99.90;;;;;;5019384;28;20038;-53
2022/05/30 11:27:48;;;;;;;6.25;3.55;;;15.00;99.90;;;;;;5002531;28;20109;-53
2022/05/30 11:30:19;;;;;;;7.95;3.70;;;14.90;99.90;;;;;;5017807;28;20087;-53
2022/05/30 11:32:49;;;;;;;7.90;3.72;;;15.30;99.90;;;;;;5018041;28;20022;-53
2022/05/30 11:35:44;;;;;;;7.47;3.47;;;15.70;99.90;;;;;;5017529;28;20117;-53
2022/05/30 11:38:35;;;;;;;6.10;3.63;;;16.20;99.90;;;;;;5267480;22;20035;-52
2022/05/30 11:41:24;;;;;;;5.70;3.72;;;16.30;99.90;;;;;;5016857;28;20493;-52
2022/05/30 11:44:28;;;;;;;4.07;2.92;;;16.70;99.90;;;;;;5018109;28;20034;-53
2022/05/30 11:47:24;;;;;;;4.78;2.58;;;16.70;99.90;;;;;;5017180;28;20038;-53
2022/05/30 11:50:22;;;;;;;9.30;2.72;;;17.10;99.90;;;;;;5018777;28;20052;-53
2022/05/30 11:53:09;;;;;;;5.57;2.73;;;16.90;99.90;;;;;;4983406;28;20073;-53
2022/05/30 11:55:43;;;;;;;3.13;2.33;;;17.20;99.90;;;;;;5017172;28;20030;-53
2022/05/30 11:58:29;;;;;;;5.28;2.70;;;17.10;99.90;;;;;;5016852;28;20018;-53
2022/05/30 12:00:57;;;;;;;4.85;2.60;;;17.10;99.90;;;;;;5017508;28;20030;-54
2022/05/30 12:04:13;;;;;;;4.88;2.92;;;16.80;99.90;;;;;;5017310;28;20014;-53
2022/05/30 12:06:49;;;;;;;4.55;2.70;;;17.20;99.90;;;;;;4988995;28;20400;-53
2022/05/30 12:09:45;;;;;;;5.30;2.85;;;16.00;99.90;;;;;;5017082;28;20108;-53
2022/05/30 12:12:20;;;;;;;3.97;2.42;;;16.10;99.90;;;;;;5005536;28;20046;-54
2022/05/30 12:15:00;;;;;;;6.32;2.58;;;15.80;99.90;;;;;;5016289;28;20029;-53
2022/05/30 12:24:15;;;;;;;6.15;2.72;;;16.70;99.90;;;;;;5028733;28;20095;-52
2022/05/30 12:26:53;;;;;;;3.28;1.88;;;17.10;99.90;;;;;;5020941;28;20037;-53
2022/05/30 12:29:37;;;;;;;4.35;2.17;;;17.00;99.90;;;;;;5020637;28;20018;-53
2022/05/30 12:32:32;;;;;;;5.10;1.80;;;17.00;99.90;;;;;;5022409;28;20084;-54
2022/05/30 12:35:00;;;;;;;3.95;2.30;;;17.20;99.90;;;;;;5021488;28;20076;-54
2022/05/30 12:37:44;;;;;;;4.07;1.65;;;17.30;99.90;;;;;;5020637;28;20511;-53
2022/05/30 12:40:28;;;;;;;3.55;1.88;;;17.40;99.90;;;;;;5019873;28;20068;-53
2022/05/30 12:43:04;;;;;;;2.63;1.60;;;17.60;99.90;;;;;;5018953;28;20032;-53
2022/05/30 12:45:40;;;;;;;4.68;2.53;;;17.90;99.90;;;;;;5031101;28;20021;-53
2022/05/30 12:48:44;;;;;;;3.97;2.35;;;18.30;99.90;;;;;;5025582;28;20030;-53
2022/05/30 12:51:15;;;;;;;2.42;1.65;;;17.90;97.50;;;;;;4999737;28;20116;-53
2022/05/30 12:53:59;;;;;;;7.65;1.65;;;17.50;99.10;;;;;;5029887;28;20032;-53
2022/05/30 12:56:37;;;;;;;10.85;2.45;;;18.10;99.90;;;;;;5031567;28;20068;-53
2022/05/30 12:59:15;;;;;;;2.60;1.90;;;18.10;97.20;;;;;;5032108;28;20029;-53
2022/05/30 13:01:44;;;;;;;4.85;1.65;;;17.40;99.90;;;;;;5031672;28;20036;-53
2022/05/30 13:04:15;;;;;;;4.03;1.80;;;17.30;99.10;;;;;;5031479;28;20030;-53
2022/05/30 13:06:56;;;;;;;2.42;1.30;;;17.20;99.90;;;;;;5030887;28;20112;-52
2022/05/30 13:09:25;;;;;;;3.88;1.90;;;17.00;99.90;;;;;;5029781;28;20120;-53
2022/05/30 13:11:57;;;;;;;1.83;1.27;;;16.90;99.90;;;;;;5029858;28;20079;-53
2022/05/30 13:14:41;;;;;;;3.33;1.50;;;16.70;99.90;;;;;;5030685;28;20028;-53
2022/05/30 13:17:18;;;;;;;2.25;1.38;;;16.50;99.90;;;;;;5030977;28;20068;-53
2022/05/30 13:19:47;;;;;;;6.95;1.88;;;16.70;99.90;;;;;;5030962;28;20026;-53
2022/05/30 13:22:19;;;;;;;4.13;1.52;;;17.10;99.90;;;;;;5031087;28;20148;-54
2022/05/30 13:24:45;;;;;;;2.17;1.30;;;17.60;98.20;;;;;;5031014;28;20045;-54
2022/05/30 13:27:11;;;;;;;2.33;1.20;;;17.20;96.10;;;;;;5030612;28;20029;-53
2022/05/30 13:29:40;;;;;;;1.98;1.23;;;17.40;98.90;;;;;;5030523;28;20464;-53
2022/05/30 13:32:14;;;;;;;2.95;1.40;;;17.50;93.50;;;;;;5031276;28;20387;-54